西安 の空港の天気 - METARとTAF

西安咸陽国際空港 ( ZLXY / XIY ) - 中国 陝西省西安市
飛行場実況気象(Metar)
観測時間02/17 22:00 CST (02/17 14:00 UTC)
風向・風速不定 1m/s
視程1500m
天気現象弱い雪 もや
全天の4割程度の雲 雲底高度 700m
全天を覆う雲 雲底高度 1010m
気温0℃
湿度93%
気圧1023hPa
METARZLXY 171400Z VRB01MPS 1500 -SN BR SCT023 OVC033 M00/M01 Q1023 BECMG TL1550 1400 -SN BR
過去の天気等 Google飛行場航空写真 Wunderground天気予報

過去48時間のMETAR

飛行場予報(TAF)
発表時間: 2/17 17:20 CST (2/17 09:20 UTC)
予報対象時間: 17日20時 CST ~ 18日20時 CST
風向・風速東北東 3m/s
視程2000m
天気現象弱い雪 もや
少しの雲 雲底高度 910m
全天を覆う雲 雲底高度 1520m
18日13時 CST ~ 18日14時 CST に徐々に
視程3000m
天気現象煙霧
18日5時 CST ~ 18日9時 CST に一時的に
視程1400m
天気現象弱い雪 もや
TAF ZLXY 170920Z 1712/1812 06003MPS 2000 -SN BR FEW030 OVC050 TX03/1808Z TNM03/23Z
BECMG 1805/1806 3000 HZ
TEMPO 1721/1801 1400 -SN BR